Station info - map view · info · telemetry · weather · raw · status · beacons · messages · bulletins · browse · moving · my account
Callsign, ship name or locator: Clear       
It is possible to search using wildcards (*?) after a prefix. Example: OH*
APRS station JA5VIB-9 - show graphs
Map loading...
Comment: 433.720MHz Imabari-city Ehime
Mic-E message: Off duty
Location: 34°03.84' N 132°59.08' E - locator PM64LB85DI - show map - static map
13.3 miles Northeast bearing 63° from Hōjō, Ehime, Japan [?]
15.3 miles Northwest bearing 312° from Saijō, Ehime, Japan
37.8 miles Southeast bearing 127° from Hiroshima-shi, Hiroshima, Japan
68.1 miles Southwest bearing 233° from Okayama-shi, Okayama, Japan
Last position: 2017-02-11 07:05:54 EST (10d 2h23m ago)
2017-02-11 21:05:54 JST local time at Hōjō, Japan [?]
Altitude: 56 ft
Course: 314°
Speed: 6 MPH
Device: Yaesu: FTM-350 (rig)
Last path: JA5VIB-9>STPSX4 via WIDE1-1,WIDE2-1,qAR,JR5YDS-15 (good)
Positions stored: 17070
Other SSIDs: JA5VIB-5 JA5VIB-7
Stations near current position of JA5VIB-9 - show more
callsign distance last heard - EST      callsign distance last heard - EST
JA5VIB-7148.0 yards 325°2017-02-05 09:03:30 JA5HWI-91.0 miles 211°2017-02-20 22:34:59
JJ5KDT-71.5 miles 279°2017-02-05 09:31:47 JR5LJK-71.6 miles 91°2017-02-16 20:33:53
JR5YDS-101.7 miles 128°2017-02-21 09:06:24 JR5YDS-151.7 miles 128°2017-02-21 09:17:52
WIR-134961.7 miles 129°2017-02-21 09:06:16 JJ5ISE-71.8 miles 127°2017-02-17 23:05:50
JH5UVK-121.9 miles 120°2017-02-20 02:08:31 JG5MMU-102.1 miles 346°2017-02-21 09:14:28
JG5MMU-72.1 miles 345°2017-02-04 01:48:00 JR5IUI-122.3 miles 161°2017-02-21 05:04:36
JA5BXF-122.4 miles 151°2017-02-21 05:19:46 JH5CQX-92.4 miles 151°2017-02-03 06:16:43
JA5BXF-72.4 miles 151°2017-02-21 06:23:05 JJ5ISE2.6 miles 125°2017-01-24 06:14:48
JA5CVU-72.8 miles 174°2017-02-20 21:23:19 JA5YRY-102.8 miles 174°2017-02-21 09:01:55
JA5CVU-122.8 miles 174°2017-02-19 23:00:03 JH5PYM-73.0 miles 122°2017-02-19 02:38:25
Stations which heard JA5VIB-9 directly on radio –
callsign pkts first heard - EST last heard longest (tx => rx) longest at - EST
JF6YFU-2 14 2017-02-04 07:14:39 2017-02-11 06:36:04 PM63KV > PM53TO 76.8 miles 253° 2017-02-11 06:36:04
JR5YCF-2 10 2017-02-04 11:39:26 2017-02-11 06:33:53 PM63KN > PM63JS 15.9 miles 348° 2017-02-11 00:48:37
JH5HOA-10 87 2017-02-04 07:07:58 2017-02-11 06:41:31 PM63KW > PM63IT 14.9 miles 223° 2017-02-04 07:07:58
JA5HWI-10 38 2017-02-10 17:57:46 2017-02-11 02:36:36 PM63KN > PM63JS 16.1 miles 350° 2017-02-11 00:49:59
JR5YCG-10 12 2017-02-04 07:27:06 2017-02-11 06:14:52 PM63KN > PM63IT 19.5 miles 342° 2017-02-10 19:27:31
JE4YKP-2 8 2017-02-04 07:05:40 2017-02-11 06:44:00 PM63JT > PM64DI 47.7 miles 323° 2017-02-04 07:42:13
JA5YVT-2 52 2017-02-04 07:00:07 2017-02-11 06:56:32 PM63JS > PM63KW 12.7 miles 16° 2017-02-11 02:41:18
JH3YBD-2 1 2017-02-04 12:03:51 2017-02-04 12:03:51 PM63KX > PM75HD 126.4 miles 51° 2017-02-04 12:03:51
JF6YFU-3 1 2017-02-11 01:23:28 2017-02-11 01:23:28 PM63JN > PM53TO 70.9 miles 273° 2017-02-11 01:23:28
JH5EWP-10 1 2017-02-10 18:06:19 2017-02-10 18:06:19 PM63JR > PM63IT 7.7 miles 332° 2017-02-10 18:06:19
JA5XQF-10 2 2017-02-10 19:30:32 2017-02-10 19:34:10 PM63JN > PM63KP 8.7 miles 29° 2017-02-10 19:30:32
JA5XPN-10 15 2017-02-10 18:34:01 2017-02-11 02:01:14 PM63JN > PM63GM 17.7 miles 257° 2017-02-10 19:09:25
JR5YDS-15 59 2017-02-04 06:57:58 2017-02-11 07:05:54 PM63KX > PM64MB 8.2 miles 45° 2017-02-04 07:06:13
JH5ZLW-3 30 2017-02-10 18:21:31 2017-02-11 02:20:21 PM63JQ > PM63HM 14.6 miles 221° 2017-02-10 18:21:31
JH5ZZZ-3 20 2017-02-10 18:33:30 2017-02-11 02:25:07 PM63JN > PM63KR 13.4 miles 20° 2017-02-10 19:32:47
JE4YKP-3 1 2017-02-10 19:34:43 2017-02-10 19:34:43 PM63KN > PM64DI 65.6 miles 331° 2017-02-10 19:34:43
JR4QII-10 1 2017-02-04 07:07:28 2017-02-04 07:07:28 PM63KW > PM64MO 44.6 miles 10° 2017-02-04 07:07:28

Only position packets which were originated by the station are shown here. The range statistics show some extra long hops, because some digipeaters do not correctly add themselves to the digipeater path. Please check the raw packets.
About this site
This page shows real-time information collected from the Automatic Position Reporting System Internet network (APRS-IS). APRS is used by amateur (ham) radio operators to transmit real-time position information, weather data, telemetry and messages over the radio. A vehicle equipped with a GPS receiver, a VHF transmitter or HF transceiver and a small computer device called a tracker transmits it's location, speed and course in a small data packet, which is then received by a nearby iGate receiving site which forwards the packet on the Internet. Systems connected to the Internet can send information on the APRS-IS without a radio transmitter, or collect and display information transmitted anywhere in the world.
FAQ · Blog · Discussion group · Linking to aprs.fi · AIS sites · Service status · Database statistics · Advertising on aprs.fi · Technical details · API · Change log · Planned changes · Credits and thanks · Terms Of Service · iPhone/iPad APRS